Search for airport 
image banner adimage banner adimage banner ad
image banner ad

CA03 - Flying M

Located in Planada, United States

ICAO - CA03, IATA -

Data provided by Airmate  

General information

Coordinates: N37°20'60" W120°17'39"
Elevation is 280 feet MSL.
Magnetic variation is 15° East
View others Airports in California

Operational data

Special qualification required
Current time UTC:
Current local time:
Weather at : KMCE - Merced Rgnl/Macready Field ( 21 km )
METAR: KMCE 240953Z AUTO 32007KT 10SM CLR 17/13 A2992 RMK AO2 SLP132 T01720128
TAF: KMCE 240520Z 2406/2506 33007KT P6SM SKC TEMPO 2406/2410 33012KT
View NOTAMs / SUP AIP / TFR affecting this airport [VIEW]
Communications frequencies: [VIEW]

Runways:

RWY identifierQFULength (ft)Width (ft)SurfaceLDA (ft)
02300030ASPH
20300030ASPH

Airport contact information

Address: Planada United States

Satellite view of CA03